sensor_id;sensor_type;location;lat;lon;timestamp;pressure;altitude;pressure_sealevel;temperature;humidity
34696;BME280;20918;51.138;17.370;2023-01-28T00:00:56;100861.70;;;-0.46;97.20
34696;BME280;20918;51.138;17.370;2023-01-28T00:03:57;100865.27;;;-0.43;97.09
34696;BME280;20918;51.138;17.370;2023-01-28T00:06:57;100865.66;;;-0.44;96.97
34696;BME280;20918;51.138;17.370;2023-01-28T00:09:58;100864.30;;;-0.45;96.83
34696;BME280;20918;51.138;17.370;2023-01-28T00:12:58;100869.09;;;-0.47;97.00
34696;BME280;20918;51.138;17.370;2023-01-28T00:16:01;100867.89;;;-0.51;96.80
34696;BME280;20918;51.138;17.370;2023-01-28T00:19:04;100865.05;;;-0.53;96.77
34696;BME280;20918;51.138;17.370;2023-01-28T00:22:04;100864.91;;;-0.54;96.82
34696;BME280;20918;51.138;17.370;2023-01-28T00:25:05;100865.23;;;-0.56;96.97
34696;BME280;20918;51.138;17.370;2023-01-28T00:28:05;100860.16;;;-0.59;97.17
34696;BME280;20918;51.138;17.370;2023-01-28T00:31:14;100862.56;;;-0.62;97.24
34696;BME280;20918;51.138;17.370;2023-01-28T00:34:16;100863.01;;;-0.64;97.51
34696;BME280;20918;51.138;17.370;2023-01-28T00:37:17;100861.50;;;-0.65;97.47
34696;BME280;20918;51.138;17.370;2023-01-28T00:40:20;100859.66;;;-0.67;97.53
34696;BME280;20918;51.138;17.370;2023-01-28T00:43:21;100857.78;;;-0.67;97.70
34696;BME280;20918;51.138;17.370;2023-01-28T00:46:22;100859.48;;;-0.67;97.88
34696;BME280;20918;51.138;17.370;2023-01-28T00:49:23;100862.27;;;-0.67;98.00
34696;BME280;20918;51.138;17.370;2023-01-28T00:52:23;100857.63;;;-0.68;97.99
34696;BME280;20918;51.138;17.370;2023-01-28T00:55:25;100854.36;;;-0.69;98.53
34696;BME280;20918;51.138;17.370;2023-01-28T00:58:26;100855.04;;;-0.72;98.64
34696;BME280;20918;51.138;17.370;2023-01-28T01:01:28;100850.61;;;-0.74;98.91
34696;BME280;20918;51.138;17.370;2023-01-28T01:04:28;100850.33;;;-0.75;98.95
34696;BME280;20918;51.138;17.370;2023-01-28T01:07:36;100853.52;;;-0.76;99.10
34696;BME280;20918;51.138;17.370;2023-01-28T01:10:43;100856.91;;;-0.78;99.04
34696;BME280;20918;51.138;17.370;2023-01-28T01:13:44;100863.05;;;-0.79;99.15
34696;BME280;20918;51.138;17.370;2023-01-28T01:16:44;100869.66;;;-0.79;99.14
34696;BME280;20918;51.138;17.370;2023-01-28T01:19:46;100871.64;;;-0.81;99.12
34696;BME280;20918;51.138;17.370;2023-01-28T01:22:46;100876.28;;;-0.80;98.99
34696;BME280;20918;51.138;17.370;2023-01-28T01:25:47;100868.61;;;-0.79;99.04
34696;BME280;20918;51.138;17.370;2023-01-28T01:28:50;100870.80;;;-0.78;98.96
34696;BME280;20918;51.138;17.370;2023-01-28T01:31:50;100874.98;;;-0.78;98.90
34696;BME280;20918;51.138;17.370;2023-01-28T01:34:51;100880.14;;;-0.77;98.75
34696;BME280;20918;51.138;17.370;2023-01-28T01:37:52;100877.84;;;-0.76;98.88
34696;BME280;20918;51.138;17.370;2023-01-28T01:40:59;100876.23;;;-0.75;98.46
34696;BME280;20918;51.138;17.370;2023-01-28T01:44:04;100885.91;;;-0.74;98.07
34696;BME280;20918;51.138;17.370;2023-01-28T01:47:05;100889.19;;;-0.74;98.11
34696;BME280;20918;51.138;17.370;2023-01-28T01:53:17;100894.78;;;-0.74;97.99
34696;BME280;20918;51.138;17.370;2023-01-28T01:56:22;100898.61;;;-0.74;97.97
34696;BME280;20918;51.138;17.370;2023-01-28T01:59:32;100898.28;;;-0.75;98.23
34696;BME280;20918;51.138;17.370;2023-01-28T02:02:39;100893.34;;;-0.77;98.52
34696;BME280;20918;51.138;17.370;2023-01-28T02:05:41;100894.33;;;-0.79;98.62
34696;BME280;20918;51.138;17.370;2023-01-28T02:08:43;100898.89;;;-0.80;98.56
34696;BME280;20918;51.138;17.370;2023-01-28T02:11:44;100899.52;;;-0.82;98.71
34696;BME280;20918;51.138;17.370;2023-01-28T02:14:49;100900.61;;;-0.87;98.59
34696;BME280;20918;51.138;17.370;2023-01-28T02:17:52;100906.56;;;-0.88;98.65
34696;BME280;20918;51.138;17.370;2023-01-28T02:24:49;100907.31;;;-0.93;99.01
34696;BME280;20918;51.138;17.370;2023-01-28T02:35:00;100905.19;;;-0.96;99.03
34696;BME280;20918;51.138;17.370;2023-01-28T02:38:11;100908.02;;;-0.97;99.21
34696;BME280;20918;51.138;17.370;2023-01-28T02:41:25;100908.53;;;-0.97;99.24
34696;BME280;20918;51.138;17.370;2023-01-28T02:44:28;100907.01;;;-0.97;99.29
34696;BME280;20918;51.138;17.370;2023-01-28T02:47:30;100907.42;;;-0.99;99.33
34696;BME280;20918;51.138;17.370;2023-01-28T02:51:22;100911.13;;;-1.00;99.37
34696;BME280;20918;51.138;17.370;2023-01-28T03:01:11;100906.41;;;-1.06;99.48
34696;BME280;20918;51.138;17.370;2023-01-28T03:07:16;100902.98;;;-1.11;99.79
34696;BME280;20918;51.138;17.370;2023-01-28T03:10:20;100907.30;;;-1.10;99.79
34696;BME280;20918;51.138;17.370;2023-01-28T03:13:22;100904.63;;;-1.13;99.76
34696;BME280;20918;51.138;17.370;2023-01-28T03:16:41;100907.77;;;-1.13;100.00
34696;BME280;20918;51.138;17.370;2023-01-28T03:20:00;100910.49;;;-1.16;100.00
34696;BME280;20918;51.138;17.370;2023-01-28T03:23:24;100915.48;;;-1.18;100.00
34696;BME280;20918;51.138;17.370;2023-01-28T03:30:34;100914.83;;;-1.19;99.96
34696;BME280;20918;51.138;17.370;2023-01-28T03:34:03;100917.58;;;-1.19;99.97
34696;BME280;20918;51.138;17.370;2023-01-28T03:37:24;100912.73;;;-1.19;100.00
34696;BME280;20918;51.138;17.370;2023-01-28T03:40:51;100912.63;;;-1.20;100.00
34696;BME280;20918;51.138;17.370;2023-01-28T03:43:53;100908.54;;;-1.18;100.00
34696;BME280;20918;51.138;17.370;2023-01-28T03:46:55;100908.67;;;-1.18;99.99
34696;BME280;20918;51.138;17.370;2023-01-28T03:49:57;100914.41;;;-1.18;100.00
34696;BME280;20918;51.138;17.370;2023-01-28T03:53:01;100917.27;;;-1.16;99.98
34696;BME280;20918;51.138;17.370;2023-01-28T03:56:21;100915.88;;;-1.16;100.00
34696;BME280;20918;51.138;17.370;2023-01-28T03:59:23;100921.85;;;-1.18;100.00
34696;BME280;20918;51.138;17.370;2023-01-28T04:02:27;100922.95;;;-1.18;100.00
34696;BME280;20918;51.138;17.370;2023-01-28T04:05:28;100923.33;;;-1.19;100.00
34696;BME280;20918;51.138;17.370;2023-01-28T04:08:31;100920.79;;;-1.20;100.00
34696;BME280;20918;51.138;17.370;2023-01-28T04:11:51;100925.61;;;-1.20;100.00
34696;BME280;20918;51.138;17.370;2023-01-28T04:14:58;100927.66;;;-1.19;99.98
34696;BME280;20918;51.138;17.370;2023-01-28T04:18:01;100927.04;;;-1.20;100.00
34696;BME280;20918;51.138;17.370;2023-01-28T04:21:04;100928.46;;;-1.21;100.00
34696;BME280;20918;51.138;17.370;2023-01-28T04:24:06;100931.73;;;-1.21;100.00
34696;BME280;20918;51.138;17.370;2023-01-28T04:27:08;100934.04;;;-1.22;100.00
34696;BME280;20918;51.138;17.370;2023-01-28T04:30:09;100930.48;;;-1.20;100.00
34696;BME280;20918;51.138;17.370;2023-01-28T04:33:16;100936.32;;;-1.19;100.00
34696;BME280;20918;51.138;17.370;2023-01-28T04:36:36;100935.60;;;-1.18;100.00
34696;BME280;20918;51.138;17.370;2023-01-28T04:40:00;100939.38;;;-1.21;100.00
34696;BME280;20918;51.138;17.370;2023-01-28T04:43:30;100943.67;;;-1.23;100.00
34696;BME280;20918;51.138;17.370;2023-01-28T04:46:50;100942.23;;;-1.22;100.00
34696;BME280;20918;51.138;17.370;2023-01-28T04:50:20;100945.64;;;-1.21;99.99
34696;BME280;20918;51.138;17.370;2023-01-28T04:53:50;100944.28;;;-1.22;99.99
34696;BME280;20918;51.138;17.370;2023-01-28T04:56:59;100948.63;;;-1.22;99.96
34696;BME280;20918;51.138;17.370;2023-01-28T05:00:00;100953.05;;;-1.23;100.00
34696;BME280;20918;51.138;17.370;2023-01-28T05:03:01;100957.02;;;-1.23;99.96
34696;BME280;20918;51.138;17.370;2023-01-28T05:06:02;100957.23;;;-1.23;100.00
34696;BME280;20918;51.138;17.370;2023-01-28T05:09:13;100958.94;;;-1.23;100.00
34696;BME280;20918;51.138;17.370;2023-01-28T05:12:14;100958.58;;;-1.23;99.99
34696;BME280;20918;51.138;17.370;2023-01-28T05:15:16;100961.92;;;-1.20;100.00
34696;BME280;20918;51.138;17.370;2023-01-28T05:18:19;100958.05;;;-1.19;100.00
34696;BME280;20918;51.138;17.370;2023-01-28T05:21:28;100959.98;;;-1.19;99.98
34696;BME280;20918;51.138;17.370;2023-01-28T05:24:35;100960.83;;;-1.19;100.00
34696;BME280;20918;51.138;17.370;2023-01-28T05:27:36;100967.52;;;-1.17;100.00
34696;BME280;20918;51.138;17.370;2023-01-28T05:30:38;100972.15;;;-1.17;100.00
34696;BME280;20918;51.138;17.370;2023-01-28T05:33:38;100976.70;;;-1.17;100.00
34696;BME280;20918;51.138;17.370;2023-01-28T05:36:42;100978.48;;;-1.18;99.89
34696;BME280;20918;51.138;17.370;2023-01-28T05:39:58;100983.36;;;-1.18;100.00
34696;BME280;20918;51.138;17.370;2023-01-28T05:42:59;100987.80;;;-1.20;99.99
34696;BME280;20918;51.138;17.370;2023-01-28T05:46:28;100983.94;;;-1.23;99.98
34696;BME280;20918;51.138;17.370;2023-01-28T05:49:49;100987.70;;;-1.26;99.93
34696;BME280;20918;51.138;17.370;2023-01-28T05:53:08;100993.46;;;-1.26;100.00
34696;BME280;20918;51.138;17.370;2023-01-28T05:56:10;100986.01;;;-1.27;100.00
34696;BME280;20918;51.138;17.370;2023-01-28T05:59:12;100984.04;;;-1.29;99.84
34696;BME280;20918;51.138;17.370;2023-01-28T06:02:16;100981.99;;;-1.30;99.91
34696;BME280;20918;51.138;17.370;2023-01-28T06:05:17;100987.88;;;-1.29;99.92
34696;BME280;20918;51.138;17.370;2023-01-28T06:08:18;100985.46;;;-1.30;100.00
34696;BME280;20918;51.138;17.370;2023-01-28T06:11:18;100988.46;;;-1.31;99.90
34696;BME280;20918;51.138;17.370;2023-01-28T06:14:19;100991.89;;;-1.34;99.84
34696;BME280;20918;51.138;17.370;2023-01-28T06:17:41;100997.41;;;-1.33;99.90
34696;BME280;20918;51.138;17.370;2023-01-28T06:20:54;100998.88;;;-1.34;99.90
34696;BME280;20918;51.138;17.370;2023-01-28T06:23:55;101002.55;;;-1.36;99.86
34696;BME280;20918;51.138;17.370;2023-01-28T06:26:55;101004.27;;;-1.36;99.82
34696;BME280;20918;51.138;17.370;2023-01-28T06:29:56;101006.89;;;-1.36;99.88
34696;BME280;20918;51.138;17.370;2023-01-28T06:32:56;101011.05;;;-1.36;99.85
34696;BME280;20918;51.138;17.370;2023-01-28T06:35:57;101015.89;;;-1.35;99.96
34696;BME280;20918;51.138;17.370;2023-01-28T06:38:57;101021.02;;;-1.37;99.86
34696;BME280;20918;51.138;17.370;2023-01-28T06:41:59;101020.64;;;-1.41;99.80
34696;BME280;20918;51.138;17.370;2023-01-28T06:45:01;101020.71;;;-1.42;99.77
34696;BME280;20918;51.138;17.370;2023-01-28T06:48:02;101024.76;;;-1.43;99.79
34696;BME280;20918;51.138;17.370;2023-01-28T06:51:04;101027.01;;;-1.43;99.82
34696;BME280;20918;51.138;17.370;2023-01-28T06:54:05;101032.25;;;-1.44;99.77
34696;BME280;20918;51.138;17.370;2023-01-28T06:57:05;101032.88;;;-1.42;99.82
34696;BME280;20918;51.138;17.370;2023-01-28T07:00:09;101033.17;;;-1.42;99.68
34696;BME280;20918;51.138;17.370;2023-01-28T07:03:10;101032.47;;;-1.41;99.84
34696;BME280;20918;51.138;17.370;2023-01-28T07:06:10;101040.17;;;-1.39;99.88
34696;BME280;20918;51.138;17.370;2023-01-28T07:09:11;101045.61;;;-1.40;99.63
34696;BME280;20918;51.138;17.370;2023-01-28T07:12:11;101049.53;;;-1.38;99.72
34696;BME280;20918;51.138;17.370;2023-01-28T07:15:15;101056.98;;;-1.38;99.81
34696;BME280;20918;51.138;17.370;2023-01-28T07:18:16;101060.95;;;-1.37;99.80
34696;BME280;20918;51.138;17.370;2023-01-28T07:21:16;101064.94;;;-1.37;99.73
34696;BME280;20918;51.138;17.370;2023-01-28T07:24:19;101067.55;;;-1.38;99.80
34696;BME280;20918;51.138;17.370;2023-01-28T07:27:20;101067.58;;;-1.38;99.77
34696;BME280;20918;51.138;17.370;2023-01-28T07:30:21;101069.75;;;-1.36;99.79
34696;BME280;20918;51.138;17.370;2023-01-28T07:33:23;101070.29;;;-1.37;99.78
34696;BME280;20918;51.138;17.370;2023-01-28T07:36:23;101071.70;;;-1.37;99.73
34696;BME280;20918;51.138;17.370;2023-01-28T07:39:25;101073.77;;;-1.41;99.53
34696;BME280;20918;51.138;17.370;2023-01-28T07:42:25;101070.45;;;-1.45;99.36
34696;BME280;20918;51.138;17.370;2023-01-28T07:45:27;101067.09;;;-1.47;99.38
34696;BME280;20918;51.138;17.370;2023-01-28T07:48:29;101068.32;;;-1.47;99.48
34696;BME280;20918;51.138;17.370;2023-01-28T07:51:30;101066.57;;;-1.47;99.43
34696;BME280;20918;51.138;17.370;2023-01-28T07:54:31;101069.70;;;-1.47;99.36
34696;BME280;20918;51.138;17.370;2023-01-28T07:57:31;101066.54;;;-1.46;99.33
34696;BME280;20918;51.138;17.370;2023-01-28T08:00:33;101067.02;;;-1.45;99.32
34696;BME280;20918;51.138;17.370;2023-01-28T08:03:36;101071.85;;;-1.45;99.13
34696;BME280;20918;51.138;17.370;2023-01-28T08:06:36;101075.96;;;-1.44;99.12
34696;BME280;20918;51.138;17.370;2023-01-28T08:09:37;101075.54;;;-1.42;99.07
34696;BME280;20918;51.138;17.370;2023-01-28T08:12:38;101077.34;;;-1.39;99.16
34696;BME280;20918;51.138;17.370;2023-01-28T08:15:39;101078.17;;;-1.38;99.12
34696;BME280;20918;51.138;17.370;2023-01-28T08:18:42;101078.84;;;-1.38;99.09
34696;BME280;20918;51.138;17.370;2023-01-28T08:21:43;101082.66;;;-1.38;98.89
34696;BME280;20918;51.138;17.370;2023-01-28T08:24:46;101082.80;;;-1.37;98.88
34696;BME280;20918;51.138;17.370;2023-01-28T08:27:46;101089.55;;;-1.36;98.98
34696;BME280;20918;51.138;17.370;2023-01-28T08:30:47;101092.38;;;-1.38;98.83
34696;BME280;20918;51.138;17.370;2023-01-28T08:33:47;101092.58;;;-1.38;98.73
34696;BME280;20918;51.138;17.370;2023-01-28T08:36:48;101091.11;;;-1.37;98.82
34696;BME280;20918;51.138;17.370;2023-01-28T08:39:49;101088.83;;;-1.36;98.73
34696;BME280;20918;51.138;17.370;2023-01-28T08:42:51;101090.45;;;-1.37;98.57
34696;BME280;20918;51.138;17.370;2023-01-28T08:45:52;101093.20;;;-1.32;98.74
34696;BME280;20918;51.138;17.370;2023-01-28T08:48:52;101093.14;;;-1.31;98.66
34696;BME280;20918;51.138;17.370;2023-01-28T08:51:53;101097.27;;;-1.34;98.33
34696;BME280;20918;51.138;17.370;2023-01-28T08:54:54;101094.27;;;-1.37;98.16
34696;BME280;20918;51.138;17.370;2023-01-28T08:57:55;101094.92;;;-1.40;97.98
34696;BME280;20918;51.138;17.370;2023-01-28T09:00:56;101096.75;;;-1.43;98.15
34696;BME280;20918;51.138;17.370;2023-01-28T09:03:56;101096.42;;;-1.43;98.08
34696;BME280;20918;51.138;17.370;2023-01-28T09:06:57;101093.19;;;-1.41;98.18
34696;BME280;20918;51.138;17.370;2023-01-28T09:09:57;101095.34;;;-1.38;98.09
34696;BME280;20918;51.138;17.370;2023-01-28T09:12:58;101095.56;;;-1.35;98.13
34696;BME280;20918;51.138;17.370;2023-01-28T09:16:04;101100.15;;;-1.32;98.14
34696;BME280;20918;51.138;17.370;2023-01-28T09:19:05;101098.32;;;-1.30;98.01
34696;BME280;20918;51.138;17.370;2023-01-28T09:22:06;101105.84;;;-1.31;97.81
34696;BME280;20918;51.138;17.370;2023-01-28T09:25:07;101110.52;;;-1.31;97.87
34696;BME280;20918;51.138;17.370;2023-01-28T09:28:10;101112.98;;;-1.32;97.87
34696;BME280;20918;51.138;17.370;2023-01-28T09:31:11;101109.11;;;-1.31;97.86
34696;BME280;20918;51.138;17.370;2023-01-28T09:34:12;101118.02;;;-1.32;97.78
34696;BME280;20918;51.138;17.370;2023-01-28T09:37:12;101119.83;;;-1.34;97.79
34696;BME280;20918;51.138;17.370;2023-01-28T09:40:14;101123.81;;;-1.38;97.60
34696;BME280;20918;51.138;17.370;2023-01-28T09:46:36;101125.59;;;-1.43;97.63
34696;BME280;20918;51.138;17.370;2023-01-28T09:49:47;101127.52;;;-1.43;97.73
34696;BME280;20918;51.138;17.370;2023-01-28T09:52:51;101130.45;;;-1.43;97.46
34696;BME280;20918;51.138;17.370;2023-01-28T09:56:00;101127.88;;;-1.44;97.47
34696;BME280;20918;51.138;17.370;2023-01-28T10:18:44;101122.42;;;-1.42;96.98
34696;BME280;20918;51.138;17.370;2023-01-28T10:21:49;101121.27;;;-1.40;96.99
34696;BME280;20918;51.138;17.370;2023-01-28T10:24:57;101123.85;;;-1.34;97.15
34696;BME280;20918;51.138;17.370;2023-01-28T10:28:21;101121.35;;;-1.29;97.22
34696;BME280;20918;51.138;17.370;2023-01-28T10:31:29;101118.42;;;-1.25;96.99
34696;BME280;20918;51.138;17.370;2023-01-28T10:34:31;101119.71;;;-1.23;96.87
34696;BME280;20918;51.138;17.370;2023-01-28T10:37:33;101118.59;;;-1.25;96.63
34696;BME280;20918;51.138;17.370;2023-01-28T10:40:35;101122.14;;;-1.23;96.79
34696;BME280;20918;51.138;17.370;2023-01-28T10:43:38;101119.18;;;-1.23;96.63
34696;BME280;20918;51.138;17.370;2023-01-28T10:46:40;101119.92;;;-1.24;96.63
34696;BME280;20918;51.138;17.370;2023-01-28T10:49:50;101118.35;;;-1.24;96.66
34696;BME280;20918;51.138;17.370;2023-01-28T10:53:00;101120.79;;;-1.28;96.40
34696;BME280;20918;51.138;17.370;2023-01-28T10:56:04;101124.17;;;-1.34;96.51
34696;BME280;20918;51.138;17.370;2023-01-28T10:59:26;101123.48;;;-1.38;96.56
34696;BME280;20918;51.138;17.370;2023-01-28T11:02:32;101114.67;;;-1.39;96.73
34696;BME280;20918;51.138;17.370;2023-01-28T11:05:36;101122.05;;;-1.33;97.02
34696;BME280;20918;51.138;17.370;2023-01-28T11:08:42;101117.59;;;-1.30;97.13
34696;BME280;20918;51.138;17.370;2023-01-28T11:11:43;101124.21;;;-1.31;96.99
34696;BME280;20918;51.138;17.370;2023-01-28T11:14:51;101126.39;;;-1.33;96.93
34696;BME280;20918;51.138;17.370;2023-01-28T11:18:04;101128.73;;;-1.35;96.83
34696;BME280;20918;51.138;17.370;2023-01-28T11:21:16;101124.63;;;-1.37;96.86
34696;BME280;20918;51.138;17.370;2023-01-28T11:24:24;101119.64;;;-1.38;96.84
34696;BME280;20918;51.138;17.370;2023-01-28T11:27:30;101121.67;;;-1.37;96.66
34696;BME280;20918;51.138;17.370;2023-01-28T11:30:37;101123.05;;;-1.37;96.70
34696;BME280;20918;51.138;17.370;2023-01-28T11:33:58;101118.20;;;-1.37;96.48
34696;BME280;20918;51.138;17.370;2023-01-28T11:37:13;101112.25;;;-1.40;96.14
34696;BME280;20918;51.138;17.370;2023-01-28T11:40:17;101116.11;;;-1.41;95.95
34696;BME280;20918;51.138;17.370;2023-01-28T11:43:22;101119.45;;;-1.42;95.99
34696;BME280;20918;51.138;17.370;2023-01-28T11:46:46;101119.39;;;-1.40;95.61
34696;BME280;20918;51.138;17.370;2023-01-28T11:56:45;101121.88;;;-1.38;95.39
34696;BME280;20918;51.138;17.370;2023-01-28T12:03:29;101120.47;;;-1.41;95.26
34696;BME280;20918;51.138;17.370;2023-01-28T12:06:41;101111.96;;;-1.41;95.30
34696;BME280;20918;51.138;17.370;2023-01-28T12:09:53;101116.54;;;-1.43;95.45
34696;BME280;20918;51.138;17.370;2023-01-28T12:13:08;101114.51;;;-1.44;95.54
34696;BME280;20918;51.138;17.370;2023-01-28T12:26:16;101114.31;;;-1.39;95.80
34696;BME280;20918;51.138;17.370;2023-01-28T12:33:25;101109.48;;;-1.44;95.66
34696;BME280;20918;51.138;17.370;2023-01-28T12:37:06;101111.96;;;-1.49;95.45
34696;BME280;20918;51.138;17.370;2023-01-28T12:40:41;101110.85;;;-1.55;95.28
34696;BME280;20918;51.138;17.370;2023-01-28T12:43:53;101109.82;;;-1.60;94.94
34696;BME280;20918;51.138;17.370;2023-01-28T12:47:06;101110.88;;;-1.64;94.75
34696;BME280;20918;51.138;17.370;2023-01-28T12:50:25;101113.01;;;-1.70;94.74
34696;BME280;20918;51.138;17.370;2023-01-28T12:53:48;101119.94;;;-1.73;94.66
34696;BME280;20918;51.138;17.370;2023-01-28T12:56:55;101119.18;;;-1.76;94.56
34696;BME280;20918;51.138;17.370;2023-01-28T13:06:53;101130.04;;;-1.78;94.52
34696;BME280;20918;51.138;17.370;2023-01-28T13:10:03;101131.52;;;-1.81;94.01
34696;BME280;20918;51.138;17.370;2023-01-28T13:13:06;101131.63;;;-1.84;93.62
34696;BME280;20918;51.138;17.370;2023-01-28T13:16:09;101132.80;;;-1.87;93.53
34696;BME280;20918;51.138;17.370;2023-01-28T13:22:31;101127.69;;;-1.89;93.58
34696;BME280;20918;51.138;17.370;2023-01-28T13:25:33;101128.98;;;-1.91;93.15
34696;BME280;20918;51.138;17.370;2023-01-28T13:28:34;101128.08;;;-1.95;91.89
34696;BME280;20918;51.138;17.370;2023-01-28T13:31:43;101130.86;;;-1.99;91.67
34696;BME280;20918;51.138;17.370;2023-01-28T13:34:56;101127.81;;;-2.01;91.65
34696;BME280;20918;51.138;17.370;2023-01-28T13:37:58;101129.90;;;-2.01;91.68
34696;BME280;20918;51.138;17.370;2023-01-28T13:41:05;101134.90;;;-2.05;91.06
34696;BME280;20918;51.138;17.370;2023-01-28T13:47:23;101137.20;;;-2.06;91.89
34696;BME280;20918;51.138;17.370;2023-01-28T13:50:36;101138.91;;;-2.05;91.90
34696;BME280;20918;51.138;17.370;2023-01-28T13:53:47;101137.98;;;-2.04;91.33
34696;BME280;20918;51.138;17.370;2023-01-28T14:10:26;101155.06;;;-2.10;90.36
34696;BME280;20918;51.138;17.370;2023-01-28T14:14:15;101151.82;;;-2.12;90.50
34696;BME280;20918;51.138;17.370;2023-01-28T14:17:24;101158.81;;;-2.13;90.30
34696;BME280;20918;51.138;17.370;2023-01-28T14:20:38;101164.67;;;-2.12;90.68
34696;BME280;20918;51.138;17.370;2023-01-28T14:23:53;101164.10;;;-2.11;91.05
34696;BME280;20918;51.138;17.370;2023-01-28T14:27:19;101164.98;;;-2.11;90.33
34696;BME280;20918;51.138;17.370;2023-01-28T14:30:28;101166.54;;;-2.11;90.81
34696;BME280;20918;51.138;17.370;2023-01-28T14:33:31;101164.09;;;-2.11;90.40
34696;BME280;20918;51.138;17.370;2023-01-28T14:36:38;101161.58;;;-2.13;90.07
34696;BME280;20918;51.138;17.370;2023-01-28T14:42:49;101165.45;;;-2.14;89.90
34696;BME280;20918;51.138;17.370;2023-01-28T14:46:05;101169.12;;;-2.15;90.06
34696;BME280;20918;51.138;17.370;2023-01-28T14:49:31;101166.11;;;-2.13;90.54
34696;BME280;20918;51.138;17.370;2023-01-28T14:59:21;101167.91;;;-2.11;90.53
34696;BME280;20918;51.138;17.370;2023-01-28T15:02:29;101177.30;;;-2.11;89.30
34696;BME280;20918;51.138;17.370;2023-01-28T15:05:29;101175.78;;;-2.12;89.68
34696;BME280;20918;51.138;17.370;2023-01-28T15:08:31;101174.98;;;-2.15;89.04
34696;BME280;20918;51.138;17.370;2023-01-28T15:11:32;101180.10;;;-2.16;89.24
34696;BME280;20918;51.138;17.370;2023-01-28T15:14:35;101176.30;;;-2.16;88.56
34696;BME280;20918;51.138;17.370;2023-01-28T15:17:36;101179.02;;;-2.19;87.93
34696;BME280;20918;51.138;17.370;2023-01-28T15:20:37;101184.26;;;-2.21;86.75
34696;BME280;20918;51.138;17.370;2023-01-28T15:23:41;101184.11;;;-2.21;87.70
34696;BME280;20918;51.138;17.370;2023-01-28T15:26:45;101186.29;;;-2.24;87.03
34696;BME280;20918;51.138;17.370;2023-01-28T15:29:52;101193.38;;;-2.24;87.81
34696;BME280;20918;51.138;17.370;2023-01-28T15:33:05;101190.71;;;-2.22;88.22
34696;BME280;20918;51.138;17.370;2023-01-28T15:36:08;101188.08;;;-2.21;88.14
34696;BME280;20918;51.138;17.370;2023-01-28T15:39:18;101188.80;;;-2.22;87.87
34696;BME280;20918;51.138;17.370;2023-01-28T15:42:22;101189.40;;;-2.24;87.01
34696;BME280;20918;51.138;17.370;2023-01-28T15:45:30;101185.46;;;-2.25;87.28
34696;BME280;20918;51.138;17.370;2023-01-28T15:48:34;101191.26;;;-2.27;86.73
34696;BME280;20918;51.138;17.370;2023-01-28T15:51:36;101197.65;;;-2.31;85.51
34696;BME280;20918;51.138;17.370;2023-01-28T15:54:48;101205.50;;;-2.32;85.62
34696;BME280;20918;51.138;17.370;2023-01-28T15:57:53;101205.47;;;-2.32;86.43
34696;BME280;20918;51.138;17.370;2023-01-28T16:01:14;101210.00;;;-2.33;86.40
34696;BME280;20918;51.138;17.370;2023-01-28T16:04:28;101209.98;;;-2.32;86.19
34696;BME280;20918;51.138;17.370;2023-01-28T16:07:32;101209.37;;;-2.34;85.69
34696;BME280;20918;51.138;17.370;2023-01-28T16:10:51;101209.09;;;-2.36;85.44
34696;BME280;20918;51.138;17.370;2023-01-28T16:13:53;101212.66;;;-2.38;84.46
34696;BME280;20918;51.138;17.370;2023-01-28T16:16:58;101208.98;;;-2.42;85.56
34696;BME280;20918;51.138;17.370;2023-01-28T16:20:05;101212.02;;;-2.40;85.61
34696;BME280;20918;51.138;17.370;2023-01-28T16:23:21;101209.27;;;-2.41;85.28
34696;BME280;20918;51.138;17.370;2023-01-28T16:26:24;101203.91;;;-2.41;85.49
34696;BME280;20918;51.138;17.370;2023-01-28T16:29:27;101210.83;;;-2.40;85.39
34696;BME280;20918;51.138;17.370;2023-01-28T16:35:29;101219.07;;;-2.38;85.21
34696;BME280;20918;51.138;17.370;2023-01-28T16:38:32;101212.02;;;-2.40;85.44
34696;BME280;20918;51.138;17.370;2023-01-28T16:41:41;101215.13;;;-2.39;85.19
34696;BME280;20918;51.138;17.370;2023-01-28T16:44:46;101220.96;;;-2.38;85.50
34696;BME280;20918;51.138;17.370;2023-01-28T16:47:49;101227.77;;;-2.39;85.47
34696;BME280;20918;51.138;17.370;2023-01-28T16:50:50;101226.69;;;-2.38;85.25
34696;BME280;20918;51.138;17.370;2023-01-28T16:53:51;101225.48;;;-2.38;85.35
34696;BME280;20918;51.138;17.370;2023-01-28T16:56:54;101226.02;;;-2.39;85.09
34696;BME280;20918;51.138;17.370;2023-01-28T17:00:30;101229.07;;;-2.42;85.63
34696;BME280;20918;51.138;17.370;2023-01-28T17:03:35;101228.27;;;-2.39;85.33
34696;BME280;20918;51.138;17.370;2023-01-28T17:06:45;101226.87;;;-2.38;85.54
34696;BME280;20918;51.138;17.370;2023-01-28T17:09:46;101226.82;;;-2.38;85.43
34696;BME280;20918;51.138;17.370;2023-01-28T17:12:51;101223.73;;;-2.38;85.23
34696;BME280;20918;51.138;17.370;2023-01-28T17:16:01;101221.79;;;-2.37;85.13
34696;BME280;20918;51.138;17.370;2023-01-28T17:19:28;101217.79;;;-2.37;85.24
34696;BME280;20918;51.138;17.370;2023-01-28T17:22:47;101218.85;;;-2.38;84.93
34696;BME280;20918;51.138;17.370;2023-01-28T17:26:11;101228.53;;;-2.37;85.01
34696;BME280;20918;51.138;17.370;2023-01-28T17:29:15;101231.81;;;-2.37;84.94
34696;BME280;20918;51.138;17.370;2023-01-28T17:32:19;101231.29;;;-2.36;84.98
34696;BME280;20918;51.138;17.370;2023-01-28T17:35:28;101231.98;;;-2.36;85.02
34696;BME280;20918;51.138;17.370;2023-01-28T17:38:48;101225.81;;;-2.33;85.10
34696;BME280;20918;51.138;17.370;2023-01-28T17:41:57;101226.05;;;-2.31;85.11
34696;BME280;20918;51.138;17.370;2023-01-28T17:45:07;101224.83;;;-2.35;84.92
34696;BME280;20918;51.138;17.370;2023-01-28T17:48:28;101239.23;;;-2.35;84.67
34696;BME280;20918;51.138;17.370;2023-01-28T17:51:31;101241.04;;;-2.37;84.58
34696;BME280;20918;51.138;17.370;2023-01-28T17:54:40;101244.23;;;-2.39;84.57